Elizabeth City, North Carolina
Current Conditions -  °F | °C
As of 7:54 PM on Monday 24 Nov 2014 (Local Time) from KECG Reporting Station
Overcast Overcast  
Wind Chill: 71°   Ceiling: 600
Heat Index: 71°   Visibility: 8mi
Dew Point: 66°   Wind: 10mph
Humidity: 84%   Direction: 200°SSW
Pressure: 29.87"   Gusts: NA
Location:  36.3°N, 76.22°W
Report Text: KECG 250054Z 20009KT 8SM OVC006 22/19 A2987 RMK AO2 SLP114 T02170189
Loading
Personal Weather Stations






























Interactive Weather Map New forecast layout! Learn more

10-Day Weather Forecast

Advertisements
Track Severe Weather on mobile